createdAt,value
2022-08-16T00:01:26.621Z,37.97
2022-08-16T00:03:57.226Z,39.10
2022-08-16T00:06:27.074Z,43.20
2022-08-16T00:08:55.122Z,39.28
2022-08-16T00:11:23.400Z,35.25
2022-08-16T00:13:53.554Z,40.47
2022-08-16T00:17:05.424Z,37.40
2022-08-16T00:19:13.721Z,35.33
2022-08-16T00:21:44.215Z,33.22
2022-08-16T00:24:13.067Z,31.17
2022-08-16T00:26:59.737Z,30.95
2022-08-16T00:29:31.044Z,31.38
2022-08-16T00:32:05.954Z,32.92
2022-08-16T00:34:44.583Z,32.03
2022-08-16T00:37:25.108Z,32.85
2022-08-16T00:40:34.980Z,32.72
2022-08-16T00:43:03.774Z,33.97
2022-08-16T00:45:37.966Z,30.55
2022-08-16T00:48:30.177Z,33.97
2022-08-16T00:51:03.049Z,33.42
2022-08-16T00:53:35.422Z,32.67
2022-08-16T00:56:08.833Z,29.90
2022-08-16T00:58:57.228Z,29.52
2022-08-16T01:01:28.868Z,29.15
2022-08-16T01:03:57.218Z,29.50
2022-08-16T01:06:39.716Z,29.25
2022-08-16T01:09:15.447Z,31.23
2022-08-16T01:11:53.633Z,31.15
2022-08-16T01:14:30.396Z,32.00
2022-08-16T01:17:00.320Z,30.67
2022-08-16T01:19:34.803Z,33.33
2022-08-16T01:22:48.073Z,35.20
2022-08-16T01:25:02.603Z,33.10
2022-08-16T01:27:38.627Z,32.60
2022-08-16T01:30:19.964Z,35.17
2022-08-16T01:33:01.192Z,33.40
2022-08-16T01:35:38.394Z,31.60
2022-08-16T01:38:21.127Z,31.58
2022-08-16T01:40:54.296Z,36.83
2022-08-16T01:43:23.700Z,36.35
2022-08-16T01:45:57.772Z,35.28
2022-08-16T01:48:30.038Z,33.92
2022-08-16T01:51:08.323Z,37.90
2022-08-16T01:53:40.669Z,35.15
2022-08-16T01:56:24.608Z,39.08
2022-08-16T01:58:56.353Z,39.55
2022-08-16T02:01:28.176Z,38.10
2022-08-16T02:03:58.202Z,36.92
2022-08-16T02:06:34.307Z,37.47
2022-08-16T02:09:11.963Z,39.50
2022-08-16T02:11:48.558Z,35.10
2022-08-16T02:14:26.258Z,36.60
2022-08-16T02:16:56.835Z,39.80
2022-08-16T02:19:59.232Z,39.42
2022-08-16T02:22:34.109Z,41.55
2022-08-16T02:25:04.969Z,39.65
2022-08-16T02:27:35.295Z,36.85
2022-08-16T02:30:06.151Z,39.28
2022-08-16T02:32:49.106Z,43.92
2022-08-16T02:35:23.088Z,38.15
2022-08-16T02:37:53.493Z,36.15
2022-08-16T02:40:25.836Z,42.47
2022-08-16T02:42:56.442Z,37.92
2022-08-16T02:45:28.076Z,37.78
2022-08-16T02:48:00.766Z,37.35
2022-08-16T02:50:54.088Z,39.53
2022-08-16T02:53:31.820Z,37.78
2022-08-16T02:56:00.664Z,37.15
2022-08-16T02:58:33.764Z,37.85
2022-08-16T03:01:02.422Z,38.83
2022-08-16T03:04:29.278Z,43.75
2022-08-16T03:06:36.492Z,39.67
2022-08-16T03:09:14.747Z,40.28
2022-08-16T03:11:43.598Z,40.97
2022-08-16T03:14:14.316Z,41.08
2022-08-16T03:16:58.665Z,42.17
2022-08-16T03:19:47.175Z,42.80
2022-08-16T03:22:28.486Z,41.80
2022-08-16T03:24:58.836Z,44.72
2022-08-16T03:27:30.944Z,46.42
2022-08-16T03:30:02.554Z,43.78
2022-08-16T03:32:47.355Z,40.80
2022-08-16T03:35:17.728Z,43.67
2022-08-16T03:38:02.754Z,43.08
2022-08-16T03:40:34.062Z,44.78
2022-08-16T03:43:20.205Z,41.83
2022-08-16T03:45:53.391Z,41.33
2022-08-16T03:48:36.111Z,42.88
2022-08-16T03:51:06.509Z,42.97
2022-08-16T03:53:37.809Z,43.10
2022-08-16T03:56:07.508Z,44.53
2022-08-16T03:58:37.113Z,44.10
2022-08-16T04:01:07.421Z,46.53
2022-08-16T04:03:35.763Z,47.22
2022-08-16T04:06:04.522Z,47.63
2022-08-16T04:08:34.729Z,47.63
2022-08-16T04:11:03.698Z,43.30
2022-08-16T04:14:01.222Z,46.60
2022-08-16T04:16:27.495Z,44.92
2022-08-16T04:19:02.283Z,43.88
2022-08-16T04:21:32.353Z,43.55
2022-08-16T04:24:03.618Z,44.35
2022-08-16T04:26:36.852Z,43.00
2022-08-16T04:29:16.876Z,43.63
2022-08-16T04:31:56.341Z,43.53
2022-08-16T04:34:27.313Z,44.47
2022-08-16T04:37:00.991Z,44.30
2022-08-16T04:39:46.219Z,45.00
2022-08-16T04:42:16.127Z,43.03
2022-08-16T04:44:53.390Z,42.15
2022-08-16T04:47:33.187Z,44.38
2022-08-16T04:50:05.136Z,42.13
2022-08-16T04:52:35.866Z,42.67
2022-08-16T04:55:09.483Z,44.67
2022-08-16T04:57:37.978Z,40.88
2022-08-16T05:00:32.531Z,42.72
2022-08-16T05:03:07.221Z,42.83
2022-08-16T05:05:44.909Z,42.35
2022-08-16T05:08:28.042Z,42.78
2022-08-16T05:11:00.143Z,41.40
2022-08-16T05:13:40.277Z,44.78
2022-08-16T05:16:19.636Z,42.80
2022-08-16T05:18:53.408Z,40.63
2022-08-16T05:21:26.900Z,45.05
2022-08-16T05:24:00.335Z,47.88
2022-08-16T05:26:32.416Z,47.70
2022-08-16T05:29:04.476Z,47.55
2022-08-16T05:31:35.096Z,48.20
2022-08-16T05:34:05.540Z,50.30
2022-08-16T05:36:51.094Z,50.92
2022-08-16T05:39:20.860Z,49.97
2022-08-16T05:41:52.129Z,49.13
2022-08-16T05:44:22.997Z,48.88
2022-08-16T05:46:54.826Z,47.72
2022-08-16T05:49:25.225Z,48.50
2022-08-16T05:52:11.693Z,47.80
2022-08-16T05:54:48.038Z,46.42
2022-08-16T05:57:34.610Z,48.30
2022-08-16T06:00:09.199Z,46.85
2022-08-16T06:02:38.536Z,48.42
2022-08-16T06:05:10.737Z,49.13
2022-08-16T06:07:42.419Z,50.55
2022-08-16T06:10:12.276Z,52.17
2022-08-16T06:12:40.992Z,50.70
2022-08-16T06:15:11.682Z,51.65
2022-08-16T06:17:44.608Z,51.60
2022-08-16T06:20:18.291Z,53.72
2022-08-16T06:22:58.608Z,53.58
2022-08-16T06:25:36.459Z,50.70
2022-08-16T06:28:10.128Z,51.88
2022-08-16T06:30:43.389Z,53.08
2022-08-16T06:33:12.890Z,51.75
2022-08-16T06:35:49.531Z,53.08
2022-08-16T06:38:32.935Z,51.15
2022-08-16T06:41:04.183Z,52.60
2022-08-16T06:43:33.215Z,53.95
2022-08-16T06:46:06.628Z,51.65
2022-08-16T06:48:43.118Z,54.38
2022-08-16T06:51:16.803Z,53.85
2022-08-16T06:53:44.915Z,54.10
2022-08-16T06:56:14.590Z,54.33
2022-08-16T06:58:53.294Z,54.45
2022-08-16T07:01:43.129Z,52.83
2022-08-16T07:04:12.212Z,54.92
2022-08-16T07:06:43.653Z,53.45
2022-08-16T07:09:16.233Z,53.28
2022-08-16T07:11:48.106Z,52.42
2022-08-16T07:14:24.508Z,55.35
2022-08-16T07:16:58.335Z,54.50
2022-08-16T07:19:33.747Z,54.08
2022-08-16T07:22:30.525Z,52.72
2022-08-16T07:25:11.911Z,52.90
2022-08-16T07:27:41.538Z,51.58
2022-08-16T07:30:46.034Z,52.85
2022-08-16T07:33:07.183Z,49.78
2022-08-16T07:35:35.523Z,49.75
2022-08-16T07:38:06.748Z,49.58
2022-08-16T07:40:59.349Z,51.40
2022-08-16T07:43:23.434Z,51.25
2022-08-16T07:45:57.091Z,50.72
2022-08-16T07:48:25.309Z,51.55
2022-08-16T07:50:55.740Z,52.10
2022-08-16T07:53:30.146Z,50.90
2022-08-16T07:56:00.555Z,53.35
2022-08-16T07:58:33.632Z,53.42
2022-08-16T08:01:10.359Z,53.38
2022-08-16T08:03:43.639Z,53.85
2022-08-16T08:06:16.196Z,52.95
2022-08-16T08:08:50.911Z,55.83
2022-08-16T08:11:23.593Z,53.58
2022-08-16T08:13:53.484Z,53.25
2022-08-16T08:16:30.924Z,54.08
2022-08-16T08:19:03.212Z,55.83
2022-08-16T08:21:58.985Z,54.25
2022-08-16T08:24:31.618Z,53.50
2022-08-16T08:27:04.334Z,54.90
2022-08-16T08:29:37.506Z,55.33
2022-08-16T08:32:57.970Z,53.97
2022-08-16T08:35:03.551Z,54.47
2022-08-16T08:37:55.783Z,53.97
2022-08-16T08:40:27.626Z,54.15
2022-08-16T08:43:00.268Z,54.53
2022-08-16T08:45:47.202Z,54.55
2022-08-16T08:48:34.167Z,57.63
2022-08-16T08:51:04.808Z,55.30
2022-08-16T08:53:34.530Z,56.10
2022-08-16T08:56:22.516Z,53.15
2022-08-16T08:58:54.934Z,51.53
2022-08-16T09:01:36.360Z,53.78
2022-08-16T09:04:06.031Z,55.95
2022-08-16T09:06:35.250Z,51.08
2022-08-16T09:09:04.674Z,50.53
2022-08-16T09:11:40.675Z,50.40
2022-08-16T09:14:24.342Z,51.88
2022-08-16T09:17:00.735Z,50.20
2022-08-16T09:19:41.045Z,53.45
2022-08-16T09:22:20.942Z,49.17
2022-08-16T09:24:52.142Z,50.17
2022-08-16T09:27:26.486Z,53.72
2022-08-16T09:30:00.054Z,54.22
2022-08-16T09:32:30.555Z,53.45
2022-08-16T09:34:59.985Z,47.00
2022-08-16T09:37:29.785Z,47.63
2022-08-16T09:39:59.629Z,46.85
2022-08-16T09:42:31.654Z,46.95
2022-08-16T09:45:19.806Z,44.58
2022-08-16T09:47:56.539Z,48.53
2022-08-16T09:50:36.978Z,46.40
2022-08-16T09:53:15.534Z,47.55
2022-08-16T09:55:50.520Z,49.22
2022-08-16T09:58:41.279Z,53.10
2022-08-16T10:01:13.113Z,53.97
2022-08-16T10:04:01.987Z,50.30
2022-08-16T10:07:16.711Z,50.10
2022-08-16T10:09:56.408Z,43.95
2022-08-16T10:12:43.729Z,42.80
2022-08-16T10:15:15.792Z,39.47
2022-08-16T10:17:59.599Z,36.42
2022-08-16T10:20:31.101Z,36.10
2022-08-16T10:23:05.763Z,34.58
2022-08-16T10:27:03.703Z,34.63
2022-08-16T10:28:31.809Z,33.03
2022-08-16T10:31:04.211Z,32.85
2022-08-16T10:33:40.485Z,33.88
2022-08-16T10:36:12.362Z,30.65
2022-08-16T10:39:08.548Z,29.85
2022-08-16T10:41:37.476Z,31.63
2022-08-16T10:44:09.493Z,30.88
2022-08-16T10:46:42.152Z,31.13
2022-08-16T10:49:11.841Z,30.35
2022-08-16T10:52:02.346Z,29.20
2022-08-16T10:54:58.560Z,27.00
2022-08-16T10:57:24.633Z,28.25
2022-08-16T10:59:57.763Z,27.20
2022-08-16T11:02:59.322Z,26.67
2022-08-16T11:05:21.670Z,28.30
2022-08-16T11:07:53.564Z,27.80
2022-08-16T11:13:57.082Z,27.92
2022-08-16T11:19:12.446Z,27.63
2022-08-16T11:24:41.654Z,27.10
2022-08-16T11:27:18.330Z,24.55
2022-08-16T11:29:48.363Z,26.38
2022-08-16T11:32:20.238Z,24.15
2022-08-16T11:35:13.838Z,24.13
2022-08-16T11:40:52.583Z,24.38
2022-08-16T11:43:24.977Z,23.85
2022-08-16T11:45:58.295Z,25.50
2022-08-16T11:48:34.595Z,25.38
2022-08-16T11:51:05.701Z,22.83
2022-08-16T11:53:36.015Z,21.30
2022-08-16T11:56:07.117Z,20.90
2022-08-16T11:58:39.549Z,24.52
2022-08-16T12:01:10.714Z,23.63
2022-08-16T12:03:41.796Z,22.63
2022-08-16T12:06:24.922Z,22.52
2022-08-16T12:09:02.751Z,20.80
2022-08-16T12:11:34.219Z,22.25
2022-08-16T12:14:08.151Z,22.67
2022-08-16T12:16:37.363Z,24.85
2022-08-16T12:19:13.604Z,25.90
2022-08-16T12:21:58.837Z,24.65
2022-08-16T12:24:29.064Z,22.75
2022-08-16T12:27:04.833Z,21.92
2022-08-16T12:29:36.761Z,26.52
2022-08-16T12:32:35.748Z,24.80
2022-08-16T12:34:55.515Z,22.95
2022-08-16T12:37:25.689Z,24.15
2022-08-16T12:40:00.287Z,25.23
2022-08-16T12:42:35.431Z,25.55
2022-08-16T12:45:05.998Z,26.83
2022-08-16T12:47:53.217Z,26.30
2022-08-16T12:50:36.007Z,25.98
2022-08-16T12:53:06.923Z,22.65
2022-08-16T12:55:42.220Z,23.50
2022-08-16T12:58:13.910Z,22.80
2022-08-16T13:01:01.795Z,20.50
2022-08-16T13:03:32.739Z,19.13
2022-08-16T13:06:12.532Z,19.00
2022-08-16T13:08:42.601Z,17.75
2022-08-16T13:11:17.703Z,16.92
2022-08-16T13:13:46.064Z,16.45
2022-08-16T13:16:24.897Z,17.08
2022-08-16T13:18:55.262Z,16.70
2022-08-16T13:21:24.191Z,14.73
2022-08-16T13:23:56.925Z,15.70
2022-08-16T13:26:27.273Z,15.00
2022-08-16T13:28:57.573Z,14.40
2022-08-16T13:31:26.306Z,13.45
2022-08-16T13:33:58.937Z,11.63
2022-08-16T13:39:18.118Z,14.73
2022-08-16T13:41:53.632Z,13.50
2022-08-16T13:44:35.964Z,11.82
2022-08-16T13:47:11.551Z,11.88
2022-08-16T13:49:43.519Z,10.10
2022-08-16T13:52:15.119Z,11.02
2022-08-16T13:54:44.754Z,11.13
2022-08-16T13:57:13.826Z,11.50
2022-08-16T13:59:43.439Z,12.50
2022-08-16T14:02:15.979Z,13.18
2022-08-16T14:04:44.622Z,15.43
2022-08-16T14:07:24.451Z,17.13
2022-08-16T14:09:56.742Z,17.65
2022-08-16T14:12:30.222Z,17.02
2022-08-16T14:14:59.634Z,17.05
2022-08-16T14:17:29.033Z,19.65
2022-08-16T14:20:01.552Z,18.02
2022-08-16T14:22:39.738Z,19.17
2022-08-16T14:25:16.402Z,20.00
2022-08-16T14:27:44.750Z,18.80
2022-08-16T14:30:15.840Z,13.32
2022-08-16T14:32:49.817Z,9.80
2022-08-16T14:35:36.835Z,10.10
2022-08-16T14:38:13.535Z,9.95
2022-08-16T14:40:55.165Z,10.45
2022-08-16T14:43:24.197Z,10.25
2022-08-16T14:45:54.735Z,10.57
2022-08-16T14:48:26.173Z,10.65
2022-08-16T14:50:55.651Z,10.57
2022-08-16T14:53:26.352Z,11.45
2022-08-16T14:55:56.646Z,12.50
2022-08-16T14:58:34.937Z,11.77
2022-08-16T15:01:09.903Z,12.63
2022-08-16T15:03:38.977Z,12.38
2022-08-16T15:06:14.614Z,12.10
2022-08-16T15:08:45.976Z,11.13
2022-08-16T15:11:16.199Z,11.35
2022-08-16T15:13:46.091Z,11.90
2022-08-16T15:16:15.920Z,14.48
2022-08-16T15:18:46.642Z,15.88
2022-08-16T15:21:14.983Z,16.90
2022-08-16T15:23:43.924Z,18.23
2022-08-16T15:26:34.810Z,18.50
2022-08-16T15:29:05.747Z,18.23
2022-08-16T15:31:36.407Z,16.55
2022-08-16T15:34:05.194Z,15.52
2022-08-16T15:36:33.441Z,14.68
2022-08-16T15:39:30.494Z,14.00
2022-08-16T15:42:04.653Z,14.10
2022-08-16T15:44:44.520Z,13.07
2022-08-16T15:47:24.305Z,12.77
2022-08-16T15:49:59.863Z,12.20
2022-08-16T15:52:31.335Z,12.50
2022-08-16T15:55:12.995Z,10.85
2022-08-16T15:57:51.741Z,9.90
2022-08-16T16:00:22.289Z,9.00
2022-08-16T16:03:02.099Z,8.20
2022-08-16T16:05:32.632Z,8.45
2022-08-16T16:08:11.436Z,8.00
2022-08-16T16:10:41.021Z,7.95
2022-08-16T16:13:10.490Z,7.70
2022-08-16T16:15:44.164Z,7.65
2022-08-16T16:18:13.800Z,7.28
2022-08-16T16:20:46.633Z,6.95
2022-08-16T16:23:16.550Z,6.97
2022-08-16T16:25:45.646Z,7.10
2022-08-16T16:28:45.936Z,7.45
2022-08-16T16:31:09.534Z,7.78
2022-08-16T16:33:42.048Z,8.27
2022-08-16T16:36:14.749Z,8.10
2022-08-16T16:38:46.282Z,8.57
2022-08-16T16:41:16.941Z,8.32
2022-08-16T16:43:45.922Z,8.98
2022-08-16T16:46:40.439Z,9.82
2022-08-16T16:49:10.283Z,9.57
2022-08-16T16:51:44.699Z,9.95
2022-08-16T16:54:27.984Z,10.50
2022-08-16T16:56:57.803Z,10.55
2022-08-16T16:59:30.474Z,10.98
2022-08-16T17:02:38.608Z,11.27
2022-08-16T17:04:52.463Z,11.23
2022-08-16T17:07:23.915Z,11.55
2022-08-16T17:09:53.017Z,10.52
2022-08-16T17:12:25.404Z,11.30
2022-08-16T17:15:13.193Z,11.15
2022-08-16T17:18:00.529Z,10.35
2022-08-16T17:20:32.267Z,10.85
2022-08-16T17:23:04.993Z,11.40
2022-08-16T17:25:35.044Z,11.48
2022-08-16T17:28:58.571Z,11.25
2022-08-16T17:30:58.597Z,11.68
2022-08-16T17:33:37.276Z,12.27
2022-08-16T17:36:35.986Z,12.10
2022-08-16T17:39:07.639Z,11.77
2022-08-16T17:41:38.334Z,12.88
2022-08-16T17:44:08.999Z,12.60
2022-08-16T17:46:41.388Z,13.15
2022-08-16T17:49:21.550Z,11.90
2022-08-16T17:51:49.721Z,12.15
2022-08-16T17:54:20.613Z,11.68
2022-08-16T17:57:00.475Z,11.02
2022-08-16T17:59:29.794Z,11.48
2022-08-16T18:02:00.988Z,10.20
2022-08-16T18:04:49.655Z,9.52
2022-08-16T18:07:18.357Z,9.95
2022-08-16T18:09:46.546Z,10.07
2022-08-16T18:12:44.772Z,9.75
2022-08-16T18:15:08.686Z,9.10
2022-08-16T18:17:37.138Z,9.55
2022-08-16T18:20:29.462Z,10.73
2022-08-16T18:23:06.231Z,13.68
2022-08-16T18:25:34.869Z,15.90
2022-08-16T18:28:03.204Z,17.63
2022-08-16T18:30:31.446Z,18.65
2022-08-16T18:32:59.804Z,19.55
2022-08-16T18:35:29.754Z,20.85
2022-08-16T18:37:58.232Z,20.55
2022-08-16T18:40:26.630Z,20.70
2022-08-16T18:42:59.381Z,18.95
2022-08-16T18:45:35.069Z,21.98
2022-08-16T18:48:05.791Z,20.38
2022-08-16T18:51:03.810Z,22.02
2022-08-16T18:53:29.532Z,22.15
2022-08-16T18:55:59.505Z,23.70
2022-08-16T18:58:29.024Z,24.95
2022-08-16T19:00:57.776Z,24.13
2022-08-16T19:03:28.013Z,25.52
2022-08-16T19:06:02.354Z,28.30
2022-08-16T19:08:31.438Z,28.75
2022-08-16T19:11:00.883Z,28.40
2022-08-16T19:13:30.761Z,29.48
2022-08-16T19:16:01.028Z,30.67
2022-08-16T19:18:36.713Z,29.77
2022-08-16T19:21:07.406Z,29.67
2022-08-16T19:23:38.053Z,29.50
2022-08-16T19:26:10.865Z,28.63
2022-08-16T19:28:50.874Z,27.52
2022-08-16T19:31:35.954Z,28.70
2022-08-16T19:34:09.103Z,29.80
2022-08-16T19:36:40.813Z,28.35
2022-08-16T19:39:17.354Z,28.08
2022-08-16T19:41:53.723Z,25.10
2022-08-16T19:44:23.501Z,28.48
2022-08-16T19:46:52.161Z,24.13
2022-08-16T19:49:20.472Z,25.48
2022-08-16T19:51:57.113Z,25.35
2022-08-16T19:54:30.984Z,25.65
2022-08-16T19:57:19.158Z,27.15
2022-08-16T19:59:54.300Z,27.33
2022-08-16T20:02:36.566Z,26.35
2022-08-16T20:05:12.659Z,29.92
2022-08-16T20:07:42.854Z,30.02
2022-08-16T20:10:12.286Z,32.88
2022-08-16T20:13:01.035Z,33.90
2022-08-16T20:15:40.695Z,36.08
2022-08-16T20:18:21.401Z,39.50
2022-08-16T20:20:53.843Z,41.33
2022-08-16T20:26:11.730Z,43.50
2022-08-16T20:28:54.258Z,44.30
2022-08-16T20:31:25.367Z,43.88
2022-08-16T20:33:56.934Z,44.80
2022-08-16T20:36:27.610Z,45.08
2022-08-16T20:39:04.773Z,46.28
2022-08-16T20:41:33.104Z,44.65
2022-08-16T20:44:04.205Z,47.38
2022-08-16T20:46:39.107Z,47.78
2022-08-16T20:49:10.104Z,50.17
2022-08-16T20:51:46.793Z,49.30
2022-08-16T20:54:21.331Z,50.42
2022-08-16T20:56:49.597Z,50.10
2022-08-16T20:59:18.046Z,50.85
2022-08-16T21:01:50.580Z,52.00
2022-08-16T21:04:19.960Z,50.05
2022-08-16T21:06:53.635Z,50.17
2022-08-16T21:09:24.834Z,51.25
2022-08-16T21:11:54.495Z,48.97
2022-08-16T21:14:22.584Z,56.03
2022-08-16T21:16:51.069Z,55.38
2022-08-16T21:19:19.385Z,62.67
2022-08-16T21:21:50.027Z,60.15
2022-08-16T21:24:19.208Z,55.90
2022-08-16T21:26:53.896Z,58.50
2022-08-16T21:29:28.469Z,55.35
2022-08-16T21:32:10.695Z,57.42
2022-08-16T21:34:38.949Z,56.65
2022-08-16T21:37:07.294Z,57.80
2022-08-16T21:39:35.957Z,55.78
2022-08-16T21:42:10.590Z,54.85
2022-08-16T21:44:39.294Z,57.35
2022-08-16T21:47:08.373Z,56.08
2022-08-16T21:49:37.836Z,57.13
2022-08-16T21:52:09.073Z,59.85
2022-08-16T21:54:37.901Z,58.20
2022-08-16T21:57:10.965Z,59.63
2022-08-16T21:59:39.643Z,59.78
2022-08-16T22:02:07.821Z,59.05
2022-08-16T22:04:38.989Z,61.75
2022-08-16T22:07:08.165Z,61.65
2022-08-16T22:09:39.842Z,64.05
2022-08-16T22:12:09.990Z,66.25
2022-08-16T22:14:38.891Z,64.82
2022-08-16T22:17:07.164Z,60.08
2022-08-16T22:19:36.457Z,60.28
2022-08-16T22:22:04.733Z,57.03
2022-08-16T22:24:32.903Z,57.10
2022-08-16T22:27:01.268Z,56.58
2022-08-16T22:29:31.368Z,55.80
2022-08-16T22:31:59.553Z,56.92
2022-08-16T22:34:27.520Z,58.78
2022-08-16T22:36:58.305Z,56.58
2022-08-16T22:39:26.852Z,56.90
2022-08-16T22:41:55.072Z,60.38
2022-08-16T22:44:23.513Z,58.22
2022-08-16T22:46:53.007Z,56.53
2022-08-16T22:49:21.326Z,55.72
2022-08-16T22:51:49.386Z,54.33
2022-08-16T22:54:48.391Z,53.90
2022-08-16T22:57:06.948Z,55.97
2022-08-16T22:59:35.294Z,57.78
2022-08-16T23:02:07.120Z,62.35
2022-08-16T23:04:35.819Z,63.13
2022-08-16T23:07:05.858Z,61.45
2022-08-16T23:09:34.225Z,61.15
2022-08-16T23:12:07.294Z,59.20
2022-08-16T23:14:35.437Z,57.28
2022-08-16T23:17:05.132Z,54.83
2022-08-16T23:19:33.185Z,53.08
2022-08-16T23:22:02.624Z,53.65
2022-08-16T23:24:37.137Z,54.22
2022-08-16T23:27:14.134Z,53.13
2022-08-16T23:29:42.152Z,53.55
2022-08-16T23:32:13.636Z,52.50
2022-08-16T23:34:41.915Z,54.30
2022-08-16T23:37:10.499Z,55.45
2022-08-16T23:39:39.051Z,55.53
2022-08-16T23:42:13.440Z,57.75
2022-08-16T23:44:56.519Z,56.63
2022-08-16T23:47:28.390Z,57.67
2022-08-16T23:50:03.523Z,59.80
2022-08-16T23:52:42.105Z,59.35
2022-08-16T23:55:21.086Z,60.47
2022-08-16T23:57:49.772Z,59.35
